Time;durP1;ratioP1;P1;durP2;ratioP2;P2;SDS_P1;SDS_P2;PMS_P1;PMS_P2;Temp;Humidity;BMP_temperature;BMP_pressure;BME280_temperature;BME280_humidity;BME280_pressure;Samples;Min_cycle;Max_cycle;Signal;HPM_P1;HPM_P2
2022/06/21 04:01:12;;;;;;;3.67;2.13;;;14.30;96.30;;;;;;5714856;23;20522;-76
2022/06/21 04:03:45;;;;;;;9.53;2.00;;;14.90;96.30;;;;;;4996324;28;20432;-76
2022/06/21 04:06:18;;;;;;;7.00;2.30;;;15.10;96.30;;;;;;4977921;28;20405;-76
2022/06/21 04:08:55;;;;;;;4.30;1.80;;;15.30;96.30;;;;;;4994915;28;20394;-79
2022/06/21 04:11:27;;;;;;;4.50;2.10;;;14.90;96.30;;;;;;4977512;28;20441;-76
2022/06/21 04:14:07;;;;;;;2.77;1.60;;;14.00;96.30;;;;;;4994808;28;20408;-77
2022/06/21 04:16:53;;;;;;;9.80;2.30;;;13.30;96.30;;;;;;4998711;28;20703;-75
2022/06/21 04:19:27;;;;;;;5.03;2.00;;;12.40;96.30;;;;;;4999770;28;20472;-76
2022/06/21 04:21:59;;;;;;;3.23;2.20;;;11.90;96.30;;;;;;5616631;22;21224;-77
2022/06/21 04:24:47;;;;;;;4.93;2.53;;;12.10;96.30;;;;;;4995015;28;20799;-77
2022/06/21 04:27:34;;;;;;;4.60;2.03;;;13.00;96.30;;;;;;4977301;28;20462;-77
2022/06/21 04:30:08;;;;;;;4.57;2.07;;;13.60;96.30;;;;;;4994620;28;20904;-78
2022/06/21 04:32:41;;;;;;;3.17;2.13;;;14.40;96.30;;;;;;4994542;28;20437;-78
2022/06/21 04:35:09;;;;;;;6.10;2.10;;;15.10;96.30;;;;;;4994200;28;20425;-76
2022/06/21 04:37:41;;;;;;;5.60;2.20;;;15.00;96.30;;;;;;4994003;28;20401;-77
2022/06/21 04:40:14;;;;;;;6.30;2.00;;;14.00;96.30;;;;;;4994285;28;20417;-76
2022/06/21 04:42:53;;;;;;;7.60;2.63;;;13.20;96.30;;;;;;4976415;28;20461;-77
2022/06/21 04:46:00;;;;;;;10.10;2.70;;;12.40;96.30;;;;;;4989222;28;20429;-76
2022/06/21 04:48:43;;;;;;;9.80;2.83;;;12.00;96.30;;;;;;4980557;28;20499;-76
2022/06/21 04:51:11;;;;;;;4.47;2.03;;;11.60;96.30;;;;;;4993354;28;20437;-75
2022/06/21 04:54:02;;;;;;;10.30;2.40;;;11.30;96.30;;;;;;4993063;28;20417;-75
2022/06/21 04:56:35;;;;;;;6.10;2.57;;;11.10;96.30;;;;;;4975259;28;20421;-75
2022/06/21 04:59:05;;;;;;;5.97;2.27;;;11.00;96.30;;;;;;4992496;28;20408;-76
2022/06/21 05:01:32;;;;;;;5.43;2.40;;;10.90;96.30;;;;;;4991842;28;20476;-75
2022/06/21 05:04:13;;;;;;;4.77;2.50;;;10.80;96.30;;;;;;4994793;28;20413;-75
2022/06/21 05:06:40;;;;;;;2.90;2.33;;;10.70;96.30;;;;;;4994584;28;20491;-75
2022/06/21 05:09:06;;;;;;;5.17;2.30;;;10.70;96.30;;;;;;4977980;28;20409;-74
2022/06/21 05:11:32;;;;;;;4.03;2.40;;;10.80;96.30;;;;;;4979603;28;20450;-74
2022/06/21 05:13:59;;;;;;;6.53;2.50;;;10.90;96.30;;;;;;4997901;28;20174;-74
2022/06/21 05:16:37;;;;;;;8.77;2.90;;;10.90;96.30;;;;;;4997185;28;20405;-75
2022/06/21 05:19:15;;;;;;;6.20;2.30;;;11.10;96.30;;;;;;4993299;28;20443;-75
2022/06/21 05:21:47;;;;;;;5.37;2.67;;;11.20;96.30;;;;;;4993214;28;20452;-75
2022/06/21 05:24:13;;;;;;;6.97;4.00;;;11.20;96.30;;;;;;4993493;28;20401;-76
2022/06/21 05:26:43;;;;;;;6.43;3.13;;;11.50;96.30;;;;;;4976012;28;20416;-77
2022/06/21 05:29:14;;;;;;;4.97;2.50;;;11.80;96.30;;;;;;4992998;28;20524;-77
2022/06/21 05:31:44;;;;;;;4.23;2.90;;;11.90;96.30;;;;;;4970718;28;20440;-76
2022/06/21 05:34:16;;;;;;;13.67;2.70;;;12.20;96.30;;;;;;4993259;28;20431;-77
2022/06/21 05:37:03;;;;;;;5.27;3.10;;;12.40;96.30;;;;;;4975445;28;20433;-77
2022/06/21 05:39:42;;;;;;;10.60;2.57;;;12.50;96.30;;;;;;4969530;28;20939;-76
2022/06/21 05:42:12;;;;;;;9.53;3.30;;;12.70;96.30;;;;;;4965332;28;20834;-76
2022/06/21 05:44:44;;;;;;;7.30;3.70;;;13.20;96.30;;;;;;4993766;28;20405;-77
2022/06/21 05:47:28;;;;;;;7.53;2.63;;;14.00;96.30;;;;;;4980335;28;20421;-75
2022/06/21 05:49:56;;;;;;;5.77;3.27;;;14.30;96.30;;;;;;4997622;28;20444;-76
2022/06/21 05:52:32;;;;;;;8.20;2.43;;;14.60;96.30;;;;;;4975578;28;20448;-77
2022/06/21 05:55:11;;;;;;;9.20;2.40;;;15.70;96.30;;;;;;4967866;28;20482;-77
2022/06/21 05:57:48;;;;;;;6.50;2.80;;;15.40;96.30;;;;;;4992893;28;20431;-77
2022/06/21 06:00:38;;;;;;;3.80;2.13;;;14.90;96.30;;;;;;4992774;28;20400;-77
2022/06/21 06:03:19;;;;;;;6.37;2.60;;;14.30;96.30;;;;;;4992663;28;20555;-77
2022/06/21 06:05:47;;;;;;;10.13;3.20;;;14.10;96.30;;;;;;4992960;28;20478;-77
2022/06/21 06:08:17;;;;;;;8.90;3.40;;;14.20;96.30;;;;;;4992557;28;20480;-77
2022/06/21 06:10:44;;;;;;;5.23;3.53;;;14.70;96.30;;;;;;4992713;28;20440;-77
2022/06/21 06:13:19;;;;;;;5.80;3.40;;;15.30;96.30;;;;;;4992784;28;20413;-77
2022/06/21 06:15:54;;;;;;;4.60;2.93;;;16.00;96.30;;;;;;4992808;28;20448;-78
2022/06/21 06:18:37;;;;;;;9.47;2.90;;;16.90;96.30;;;;;;4992519;28;20412;-77
2022/06/21 06:21:18;;;;;;;5.80;2.57;;;17.00;96.30;;;;;;4992551;28;20461;-77
2022/06/21 06:24:04;;;;;;;11.40;2.57;;;16.30;96.30;;;;;;4975111;28;20439;-77
2022/06/21 06:26:34;;;;;;;7.40;2.97;;;15.90;96.30;;;;;;4992442;28;20408;-77
2022/06/21 06:29:03;;;;;;;3.23;2.47;;;16.40;96.30;;;;;;4992503;28;20903;-77
2022/06/21 06:31:40;;;;;;;7.43;2.60;;;16.60;96.30;;;;;;4992504;28;20440;-77
2022/06/21 06:34:11;;;;;;;6.80;2.50;;;16.30;96.30;;;;;;4975171;28;20431;-77
2022/06/21 06:37:02;;;;;;;10.20;2.50;;;16.00;96.30;;;;;;4992655;28;20432;-77
2022/06/21 06:39:31;;;;;;;7.27;2.80;;;15.60;96.30;;;;;;4965324;28;20433;-77
2022/06/21 06:42:21;;;;;;;8.27;3.03;;;15.20;96.30;;;;;;4992678;28;20475;-77
2022/06/21 06:44:49;;;;;;;5.87;2.90;;;14.90;96.30;;;;;;4992890;28;20412;-77
2022/06/21 06:47:25;;;;;;;8.07;3.00;;;14.70;96.30;;;;;;4975357;28;20428;-77
2022/06/21 06:49:59;;;;;;;6.10;2.60;;;14.60;96.30;;;;;;4992316;28;20428;-77
2022/06/21 06:52:32;;;;;;;8.80;3.00;;;14.40;96.30;;;;;;4992297;28;20436;-77
2022/06/21 06:55:01;;;;;;;6.57;3.00;;;14.40;96.30;;;;;;4992411;28;20420;-78
2022/06/21 06:57:31;;;;;;;8.47;2.87;;;14.70;96.30;;;;;;4992062;28;20548;-77
2022/06/21 06:59:58;;;;;;;10.43;3.03;;;15.20;96.30;;;;;;4974290;28;20452;-77
2022/06/21 07:02:35;;;;;;;7.00;2.73;;;15.80;96.30;;;;;;4992126;28;20468;-78
2022/06/21 07:05:13;;;;;;;3.90;2.33;;;16.40;96.30;;;;;;4992441;28;20442;-78
2022/06/21 07:07:47;;;;;;;8.00;2.53;;;16.70;96.30;;;;;;4978348;28;20928;-78
2022/06/21 07:10:18;;;;;;;6.77;2.40;;;16.40;96.30;;;;;;4996053;28;20416;-77
2022/06/21 07:12:44;;;;;;;7.13;2.20;;;16.40;96.30;;;;;;4995801;28;20444;-78
2022/06/21 07:15:11;;;;;;;3.60;2.40;;;17.30;96.30;;;;;;4996078;28;20471;-78
2022/06/21 07:17:41;;;;;;;10.50;2.33;;;17.70;96.30;;;;;;4995764;28;20169;-78
2022/06/21 07:20:27;;;;;;;3.23;1.80;;;18.00;96.30;;;;;;4996002;28;20424;-78
2022/06/21 07:22:55;;;;;;;5.73;2.23;;;17.90;96.30;;;;;;4995733;28;20498;-78
2022/06/21 07:25:41;;;;;;;3.37;1.80;;;17.50;96.30;;;;;;4978524;28;20425;-78
2022/06/21 07:28:25;;;;;;;7.90;2.50;;;16.60;96.30;;;;;;4995575;28;20504;-78
2022/06/21 07:30:53;;;;;;;12.63;3.13;;;16.40;96.30;;;;;;4995669;28;20453;-78
2022/06/21 07:33:28;;;;;;;4.00;2.03;;;18.40;96.30;;;;;;4995391;28;20479;-78
2022/06/21 07:36:01;;;;;;;4.30;2.00;;;19.50;96.30;;;;;;4995669;28;20420;-76
2022/06/21 07:38:47;;;;;;;12.43;2.67;;;18.60;96.30;;;;;;4995431;28;20444;-76
2022/06/21 07:41:36;;;;;;;8.43;2.73;;;17.90;96.30;;;;;;4995369;28;20448;-75
2022/06/21 07:44:19;;;;;;;8.70;2.60;;;16.90;96.30;;;;;;4995550;28;20408;-77
2022/06/21 07:46:52;;;;;;;8.70;3.13;;;16.40;96.30;;;;;;4995459;28;20409;-77
2022/06/21 07:49:30;;;;;;;10.57;3.60;;;17.60;96.30;;;;;;4995153;28;20925;-77
2022/06/21 07:52:01;;;;;;;4.50;2.57;;;18.90;96.30;;;;;;4977971;28;20935;-77
2022/06/21 07:54:30;;;;;;;4.10;2.67;;;20.30;95.60;;;;;;4995352;28;20752;-77
2022/06/21 07:57:00;;;;;;;16.00;2.70;;;20.70;94.80;;;;;;4995340;28;20420;-77
2022/06/21 07:59:33;;;;;;;3.63;2.10;;;21.50;92.50;;;;;;4995068;28;20429;-77
2022/06/21 08:08:01;;;;;;;3.37;1.93;;;17.80;96.30;;;;;;4995287;28;20951;-77
2022/06/21 08:10:41;;;;;;;6.60;2.00;;;18.90;96.30;;;;;;4978093;28;20928;-77
2022/06/21 08:13:07;;;;;;;9.70;2.43;;;18.90;95.00;;;;;;4995288;28;20429;-77
2022/06/21 08:15:43;;;;;;;7.60;1.80;;;18.40;96.30;;;;;;4995307;28;20464;-77
2022/06/21 08:18:31;;;;;;;4.10;1.73;;;18.30;96.30;;;;;;4994256;28;20169;-77
2022/06/21 08:21:06;;;;;;;7.63;2.00;;;18.20;96.30;;;;;;4994690;28;20920;-77
2022/06/21 08:23:45;;;;;;;4.57;1.73;;;18.60;96.30;;;;;;4994646;28;20451;-77
2022/06/21 08:26:30;;;;;;;6.33;2.13;;;20.10;96.30;;;;;;4994858;28;20470;-77
2022/06/21 08:29:17;;;;;;;9.13;2.00;;;19.40;96.30;;;;;;4994397;28;20462;-77
2022/06/21 08:31:51;;;;;;;5.60;2.23;;;20.30;95.90;;;;;;4994599;28;20958;-77
2022/06/21 08:34:47;;;;;;;6.37;1.97;;;21.00;90.30;;;;;;4994581;28;20904;-77
2022/06/21 08:37:41;;;;;;;4.63;1.40;;;19.80;91.60;;;;;;4992843;28;20424;-77
2022/06/21 08:40:50;;;;;;;5.10;1.70;;;18.80;94.90;;;;;;4994506;28;20772;-77
2022/06/21 08:43:41;;;;;;;5.67;1.70;;;20.20;96.30;;;;;;4994501;28;20512;-77
2022/06/21 08:46:43;;;;;;;4.90;1.50;;;20.80;89.80;;;;;;4994507;28;20459;-77
2022/06/21 08:49:33;;;;;;;4.00;1.63;;;20.90;93.40;;;;;;4994083;28;20416;-77
2022/06/21 08:52:27;;;;;;;3.57;1.60;;;19.80;94.30;;;;;;4976727;28;20433;-77
2022/06/21 08:55:09;;;;;;;5.40;1.60;;;18.40;96.30;;;;;;4994227;28;20800;-77
2022/06/21 08:57:59;;;;;;;4.80;1.83;;;19.00;96.30;;;;;;4993864;28;20409;-77
2022/06/21 09:00:59;;;;;;;4.60;1.67;;;20.40;95.90;;;;;;4994077;28;20472;-77
2022/06/21 09:03:47;;;;;;;7.90;1.40;;;21.90;93.60;;;;;;4994184;28;20441;-77
2022/06/21 09:06:49;;;;;;;14.47;1.73;;;21.90;92.90;;;;;;4994427;28;20467;-77
2022/06/21 09:09:22;;;;;;;19.20;2.43;;;21.50;87.70;;;;;;4994011;28;20404;-77
2022/06/21 09:11:56;;;;;;;5.17;1.60;;;20.50;91.70;;;;;;4976595;28;20523;-77
2022/06/21 09:14:35;;;;;;;4.77;1.70;;;19.40;93.90;;;;;;4993984;28;20404;-77
2022/06/21 09:17:36;;;;;;;2.80;1.30;;;19.30;96.30;;;;;;4976936;28;20507;-77
2022/06/21 09:20:15;;;;;;;2.53;1.50;;;20.60;91.30;;;;;;4993955;28;20466;-77
2022/06/21 09:23:02;;;;;;;2.50;1.60;;;21.90;89.80;;;;;;4994055;28;20468;-78
2022/06/21 09:25:32;;;;;;;4.17;1.47;;;22.50;88.60;;;;;;4993716;28;20389;-77
2022/06/21 09:28:17;;;;;;;3.33;1.60;;;22.70;85.60;;;;;;4976212;28;20436;-77
2022/06/21 09:30:48;;;;;;;4.10;2.13;;;23.40;84.20;;;;;;4993087;28;20436;-77
2022/06/21 09:33:45;;;;;;;2.40;1.40;;;23.30;83.30;;;;;;4993113;28;20460;-77
2022/06/21 09:36:22;;;;;;;3.40;1.63;;;23.60;86.50;;;;;;4993233;28;20452;-77
2022/06/21 09:39:15;;;;;;;4.13;1.40;;;23.50;85.40;;;;;;4989985;28;20435;-78
2022/06/21 09:42:12;;;;;;;4.40;1.50;;;24.20;81.40;;;;;;4991702;28;20990;-77
2022/06/21 09:44:51;;;;;;;5.47;1.17;;;23.30;80.70;;;;;;4994004;28;20783;-78
2022/06/21 09:47:25;;;;;;;5.13;1.30;;;22.00;80.60;;;;;;4995457;28;20412;-77
2022/06/21 09:49:58;;;;;;;3.47;1.30;;;22.00;80.50;;;;;;4995325;28;20419;-77
2022/06/21 09:52:46;;;;;;;4.77;1.57;;;21.40;84.60;;;;;;4977779;28;20453;-77
2022/06/21 09:55:33;;;;;;;3.73;1.17;;;22.30;83.50;;;;;;4996065;28;20452;-77
2022/06/21 09:58:20;;;;;;;3.60;1.63;;;23.00;83.20;;;;;;4994670;28;20413;-78
2022/06/21 10:00:55;;;;;;;4.57;1.30;;;22.60;82.70;;;;;;4995046;28;20433;-78
2022/06/21 10:03:39;;;;;;;10.60;2.00;;;21.40;84.40;;;;;;4995181;28;20428;-79
2022/06/21 10:06:12;;;;;;;4.03;1.30;;;21.30;87.10;;;;;;4995059;28;20432;-78
2022/06/21 10:08:43;;;;;;;4.30;1.30;;;22.00;86.50;;;;;;4994465;28;20401;-78
2022/06/21 10:11:33;;;;;;;5.67;1.30;;;22.80;84.40;;;;;;4994270;28;20527;-79
2022/06/21 10:14:22;;;;;;;3.60;1.00;;;23.30;83.60;;;;;;4995866;28;20419;-78
2022/06/21 10:17:25;;;;;;;3.43;1.17;;;23.00;77.80;;;;;;5014746;28;20439;-79
2022/06/21 10:19:59;;;;;;;2.10;1.20;;;22.80;77.40;;;;;;5010004;28;20432;-78
2022/06/21 10:22:44;;;;;;;2.63;1.30;;;22.90;85.20;;;;;;4997067;28;20468;-78
2022/06/21 10:25:37;;;;;;;4.40;1.17;;;23.10;80.70;;;;;;4998164;28;20405;-78
2022/06/21 10:28:12;;;;;;;5.73;1.33;;;22.70;79.00;;;;;;4973995;28;20421;-78
2022/06/21 10:31:07;;;;;;;8.23;1.60;;;22.80;79.60;;;;;;4976534;28;20436;-78
2022/06/21 10:33:47;;;;;;;3.63;1.80;;;22.20;84.90;;;;;;4990709;28;20535;-78
2022/06/21 10:36:22;;;;;;;3.73;1.00;;;22.20;84.50;;;;;;4989783;28;20423;-78
2022/06/21 10:39:10;;;;;;;6.80;1.50;;;22.00;83.40;;;;;;4994291;28;20423;-78
2022/06/21 10:45:05;;;;;;;7.30;1.53;;;22.20;84.70;;;;;;4957224;28;20418;-78
2022/06/21 10:47:59;;;;;;;3.67;1.00;;;22.20;81.50;;;;;;4993254;28;20417;-78
2022/06/21 10:50:58;;;;;;;3.80;1.40;;;23.10;84.80;;;;;;4995334;28;20527;-78
2022/06/21 10:53:29;;;;;;;1.60;1.13;;;23.70;82.70;;;;;;4996604;28;20444;-80
2022/06/21 11:01:17;;;;;;;6.10;1.27;;;24.60;77.80;;;;;;4973294;28;20471;-79
2022/06/21 11:02:50;;;;;;;3.53;1.13;;;24.30;75.80;;;;;;4995985;28;20472;-79
2022/06/21 11:05:25;;;;;;;5.43;1.37;;;24.00;76.80;;;;;;4996272;28;21101;-79
2022/06/21 11:07:58;;;;;;;3.03;1.07;;;24.00;77.10;;;;;;4996141;28;20397;-79
2022/06/21 11:10:49;;;;;;;3.27;1.20;;;23.30;72.30;;;;;;4996455;28;20409;-78
2022/06/21 11:13:18;;;;;;;1.80;1.20;;;22.90;73.30;;;;;;4996140;28;20417;-78
2022/06/21 11:15:50;;;;;;;6.00;1.10;;;22.00;82.30;;;;;;4995926;28;20423;-78
2022/06/21 11:18:33;;;;;;;6.83;1.30;;;23.50;78.90;;;;;;4995125;28;20419;-78
2022/06/21 11:21:09;;;;;;;5.23;0.90;;;24.30;79.10;;;;;;4978655;28;20452;-78
2022/06/21 11:24:03;;;;;;;2.33;1.00;;;25.00;75.00;;;;;;4995608;28;21066;-78
2022/06/21 11:27:06;;;;;;;4.17;1.40;;;25.10;71.20;;;;;;4974136;28;20428;-78
2022/06/21 11:29:40;;;;;;;2.27;1.13;;;25.10;73.00;;;;;;4928252;28;21105;-78
2022/06/21 11:32:29;;;;;;;4.10;1.00;;;25.20;74.00;;;;;;4975507;28;20460;-78
2022/06/21 11:35:26;;;;;;;2.30;0.80;;;25.00;73.50;;;;;;4986590;28;20432;-78
2022/06/21 11:37:55;;;;;;;2.67;1.10;;;24.20;69.60;;;;;;4981614;28;20437;-78
2022/06/21 11:40:35;;;;;;;5.20;1.10;;;24.30;70.90;;;;;;4984741;28;20424;-78
2022/06/21 11:43:04;;;;;;;4.10;1.00;;;24.80;75.00;;;;;;4990770;28;21253;-78
2022/06/21 11:45:48;;;;;;;1.90;0.90;;;24.60;76.50;;;;;;4990380;28;20420;-78
2022/06/21 11:48:48;;;;;;;3.40;1.00;;;24.50;74.10;;;;;;4991524;28;20408;-78
2022/06/21 11:51:35;;;;;;;3.17;0.90;;;24.70;74.10;;;;;;4990737;28;20436;-78
2022/06/21 11:54:07;;;;;;;3.50;0.93;;;24.90;73.40;;;;;;4989937;28;20937;-78
2022/06/21 11:56:49;;;;;;;3.03;1.37;;;24.90;70.90;;;;;;4990783;28;20939;-78
2022/06/21 11:59:41;;;;;;;3.70;1.00;;;23.40;68.90;;;;;;4987843;28;20404;-78
2022/06/21 12:02:18;;;;;;;3.67;1.03;;;23.70;71.90;;;;;;4964409;28;20694;-78
2022/06/21 12:05:18;;;;;;;12.63;1.70;;;23.10;71.50;;;;;;4988666;28;20420;-80
2022/06/21 12:07:51;;;;;;;5.17;1.13;;;22.70;74.10;;;;;;4987605;28;20432;-78
2022/06/21 12:10:58;;;;;;;3.33;1.20;;;22.60;72.20;;;;;;4984813;28;20432;-78
2022/06/21 12:13:43;;;;;;;3.33;1.17;;;22.90;78.50;;;;;;4986775;28;20432;-78
2022/06/21 12:16:16;;;;;;;4.50;1.47;;;23.70;76.60;;;;;;4969028;28;20425;-78
2022/06/21 12:18:47;;;;;;;3.30;1.20;;;23.20;71.40;;;;;;4988316;28;20416;-78
2022/06/21 12:21:17;;;;;;;7.43;1.57;;;22.50;72.90;;;;;;4989740;28;20432;-79
2022/06/21 12:23:45;;;;;;;10.13;1.20;;;23.40;73.50;;;;;;4988372;28;20917;-79
2022/06/21 12:26:16;;;;;;;4.67;1.00;;;23.00;71.00;;;;;;4989310;28;20504;-78
2022/06/21 12:28:43;;;;;;;8.00;1.17;;;23.50;71.20;;;;;;4984474;28;20436;-79
2022/06/21 12:31:25;;;;;;;2.47;1.20;;;24.00;75.90;;;;;;4979832;28;21237;-77
2022/06/21 12:34:12;;;;;;;7.70;1.27;;;23.90;71.70;;;;;;4990249;28;20476;-79
2022/06/21 12:36:54;;;;;;;3.83;0.90;;;23.80;72.70;;;;;;4989397;28;20931;-78
2022/06/21 12:39:27;;;;;;;1.93;1.00;;;24.20;69.80;;;;;;4987164;28;20420;-78
2022/06/21 12:42:15;;;;;;;3.37;1.10;;;23.10;69.20;;;;;;4987616;28;20475;-78
2022/06/21 12:45:14;;;;;;;3.40;1.20;;;23.60;68.50;;;;;;4973048;28;20420;-78
2022/06/21 12:48:08;;;;;;;4.63;1.27;;;23.00;70.00;;;;;;4989104;28;20449;-78
2022/06/21 12:50:45;;;;;;;4.23;1.30;;;23.70;68.50;;;;;;4989656;28;20491;-79
2022/06/21 12:53:40;;;;;;;1.93;1.00;;;23.30;73.50;;;;;;4989276;28;20782;-77
2022/06/21 12:56:24;;;;;;;3.40;1.20;;;23.40;71.60;;;;;;4986924;28;20773;-80
2022/06/21 12:58:52;;;;;;;2.83;1.13;;;24.00;72.70;;;;;;4988952;28;20860;-78
2022/06/21 13:01:25;;;;;;;2.97;1.00;;;23.40;68.40;;;;;;4985683;28;20444;-80
2022/06/21 13:04:26;;;;;;;2.40;1.30;;;23.40;69.50;;;;;;4977950;28;20413;-78
2022/06/21 13:07:19;;;;;;;3.20;1.23;;;23.80;69.00;;;;;;4988137;28;20412;-77
2022/06/21 13:10:26;;;;;;;2.77;1.13;;;23.70;71.90;;;;;;4986073;28;20409;-78
2022/06/21 13:13:25;;;;;;;3.60;1.40;;;23.00;71.50;;;;;;4986363;28;20445;-77
2022/06/21 13:16:10;;;;;;;6.43;1.10;;;23.30;72.80;;;;;;4989777;28;20818;-78
2022/06/21 13:18:49;;;;;;;2.30;0.80;;;23.20;72.80;;;;;;4988339;28;20464;-78
2022/06/21 13:22:06;;;;;;;2.37;0.83;;;24.00;72.80;;;;;;4986545;28;20865;-78
2022/06/21 13:25:25;;;;;;;5.10;1.20;;;24.60;71.70;;;;;;4955732;28;20480;-78
2022/06/21 13:28:07;;;;;;;8.50;1.70;;;24.60;70.70;;;;;;4930756;29;20439;-78
2022/06/21 13:30:42;;;;;;;1.80;0.90;;;24.20;68.50;;;;;;4993108;28;20926;-79
2022/06/21 13:33:17;;;;;;;3.20;1.00;;;24.40;70.80;;;;;;4993526;28;20405;-78
2022/06/21 13:36:20;;;;;;;4.70;1.10;;;24.30;68.30;;;;;;4993512;28;20435;-77
2022/06/21 13:39:23;;;;;;;4.40;1.00;;;24.30;69.90;;;;;;4898162;29;20450;-78
2022/06/21 13:44:48;;;;;;;2.07;0.83;;;24.30;66.20;;;;;;4994937;28;20396;-77
2022/06/21 13:47:31;;;;;;;3.97;1.00;;;24.10;64.90;;;;;;4994110;28;20404;-77
2022/06/21 13:50:28;;;;;;;1.67;1.07;;;23.60;68.70;;;;;;4994452;28;20404;-76
2022/06/21 13:53:04;;;;;;;3.27;1.20;;;23.80;66.80;;;;;;4994332;28;20751;-76
2022/06/21 13:55:42;;;;;;;2.80;1.00;;;22.90;67.10;;;;;;4993743;28;20444;-77
2022/06/21 13:58:32;;;;;;;1.80;0.90;;;23.00;67.10;;;;;;4992022;28;20443;-77
2022/06/21 14:01:13;;;;;;;2.60;0.90;;;23.80;70.10;;;;;;4976249;28;20986;-76
2022/06/21 14:03:55;;;;;;;8.00;1.10;;;23.80;67.50;;;;;;4994053;28;20416;-77
2022/06/21 14:06:32;;;;;;;1.53;0.83;;;23.80;68.50;;;;;;4993895;28;20411;-77
2022/06/21 14:09:05;;;;;;;1.30;0.93;;;24.00;66.40;;;;;;4993556;28;20498;-78
2022/06/21 14:11:37;;;;;;;3.07;1.03;;;23.10;69.30;;;;;;4993587;28;20428;-79
2022/06/21 14:14:12;;;;;;;4.00;1.20;;;23.20;72.30;;;;;;4997547;28;20409;-79
2022/06/21 14:16:49;;;;;;;2.60;0.80;;;23.10;70.30;;;;;;4997977;28;20440;-77
2022/06/21 14:19:31;;;;;;;1.97;0.70;;;23.10;71.40;;;;;;4994624;28;20507;-77
2022/06/21 14:22:02;;;;;;;1.93;0.70;;;23.80;70.00;;;;;;4992658;28;20464;-77
2022/06/21 14:24:39;;;;;;;3.10;1.03;;;23.70;67.50;;;;;;4992643;28;20915;-77
2022/06/21 14:27:19;;;;;;;5.20;1.03;;;23.60;67.30;;;;;;4992810;28;20405;-77
2022/06/21 14:29:54;;;;;;;3.17;1.00;;;24.50;64.30;;;;;;4992663;28;20416;-77
2022/06/21 14:32:26;;;;;;;1.50;0.80;;;25.30;66.10;;;;;;4975516;28;20827;-77
2022/06/21 14:35:19;;;;;;;9.80;0.90;;;25.20;63.30;;;;;;4978062;28;20459;-79
2022/06/21 14:37:54;;;;;;;5.57;1.10;;;25.20;63.70;;;;;;4992769;28;20498;-77
2022/06/21 14:40:37;;;;;;;2.03;0.90;;;24.60;64.60;;;;;;4992716;28;20473;-77
2022/06/21 14:43:23;;;;;;;4.40;0.90;;;24.20;65.90;;;;;;4975141;28;20470;-77
2022/06/21 14:45:57;;;;;;;1.10;0.70;;;24.80;66.40;;;;;;4992722;28;20420;-77
2022/06/21 14:48:42;;;;;;;2.00;1.10;;;25.30;64.80;;;;;;4974657;28;20752;-77
2022/06/21 14:51:34;;;;;;;3.00;1.00;;;25.10;63.80;;;;;;4992669;28;21125;-77
2022/06/21 14:54:44;;;;;;;3.00;0.77;;;24.40;63.60;;;;;;4992546;28;20419;-77
2022/06/21 14:57:33;;;;;;;6.70;0.90;;;24.20;64.20;;;;;;4992437;28;20396;-77
2022/06/21 15:00:14;;;;;;;3.77;1.23;;;23.80;66.90;;;;;;4992192;28;20772;-77
2022/06/21 15:03:14;;;;;;;3.63;1.00;;;23.90;69.50;;;;;;4991611;28;20456;-77
2022/06/21 15:05:56;;;;;;;1.87;0.80;;;23.80;67.50;;;;;;4991515;28;20412;-77
2022/06/21 15:08:36;;;;;;;4.50;0.80;;;24.20;67.00;;;;;;4991506;28;20419;-77
2022/06/21 15:11:04;;;;;;;3.07;0.80;;;24.30;66.40;;;;;;4992234;28;21019;-78
2022/06/21 15:13:39;;;;;;;1.77;0.90;;;24.40;65.20;;;;;;4992347;28;20901;-77
2022/06/21 15:16:29;;;;;;;1.43;0.80;;;24.40;67.30;;;;;;4992160;28;20412;-78
2022/06/21 15:19:53;;;;;;;9.40;0.80;;;24.50;66.80;;;;;;4973705;28;20412;-77
2022/06/21 15:22:00;;;;;;;3.10;0.63;;;24.50;66.80;;;;;;4990122;28;20499;-78
2022/06/21 15:24:36;;;;;;;3.07;1.00;;;24.20;65.10;;;;;;4988334;28;20432;-77
2022/06/21 15:27:10;;;;;;;3.60;0.70;;;23.70;66.80;;;;;;4991160;28;21196;-77
2022/06/21 15:29:48;;;;;;;4.53;0.90;;;23.80;66.80;;;;;;4989564;28;20420;-77
2022/06/21 15:32:18;;;;;;;6.20;0.97;;;24.00;66.90;;;;;;4974250;28;21071;-78
2022/06/21 15:34:48;;;;;;;1.50;0.87;;;23.90;66.70;;;;;;4993103;28;20412;-77
2022/06/21 15:37:26;;;;;;;4.30;0.90;;;23.80;66.20;;;;;;4993467;28;20430;-77
2022/06/21 15:39:55;;;;;;;2.73;0.70;;;23.70;66.40;;;;;;4994162;28;20431;-80
2022/06/21 15:42:37;;;;;;;5.80;0.80;;;23.30;67.30;;;;;;4976865;28;20975;-77
2022/06/21 15:45:25;;;;;;;1.77;0.80;;;23.10;69.40;;;;;;4995898;28;20417;-77
2022/06/21 15:50:53;;;;;;;2.10;0.80;;;23.20;69.00;;;;;;4976343;28;20520;-77
2022/06/21 15:53:27;;;;;;;1.40;0.70;;;23.30;71.60;;;;;;4976256;28;20413;-78
2022/06/21 15:56:20;;;;;;;3.60;0.80;;;23.50;67.20;;;;;;4958540;28;20418;-78
2022/06/21 15:58:53;;;;;;;2.70;0.90;;;24.50;68.10;;;;;;4976125;28;20410;-77
2022/06/21 16:01:42;;;;;;;2.17;0.90;;;24.90;66.90;;;;;;4975720;28;20433;-77
2022/06/21 16:04:29;;;;;;;3.27;0.83;;;24.90;66.20;;;;;;4977488;28;20769;-77
2022/06/21 16:06:59;;;;;;;2.97;0.80;;;24.50;65.50;;;;;;4995552;28;20420;-78
2022/06/21 16:09:27;;;;;;;4.47;0.80;;;24.50;64.20;;;;;;4995070;28;20405;-78
2022/06/21 16:11:59;;;;;;;1.77;0.73;;;24.40;64.00;;;;;;4977350;28;20523;-79
2022/06/21 16:14:31;;;;;;;3.93;0.80;;;24.60;66.10;;;;;;4995122;28;20439;-80
2022/06/21 16:17:06;;;;;;;2.10;0.70;;;24.70;65.40;;;;;;4996761;28;20415;-79
2022/06/21 16:19:32;;;;;;;1.10;0.73;;;25.10;66.40;;;;;;4995957;28;20810;-78
2022/06/21 16:22:00;;;;;;;2.70;1.13;;;24.60;64.40;;;;;;4994589;28;20464;-79
2022/06/21 16:24:57;;;;;;;2.67;1.07;;;23.90;66.60;;;;;;4976544;28;20169;-79
2022/06/21 16:27:30;;;;;;;2.23;0.70;;;23.10;66.60;;;;;;4995236;28;20745;-77
2022/06/21 16:30:18;;;;;;;1.93;0.90;;;23.20;66.50;;;;;;4995287;28;20536;-79
2022/06/21 17:36:32;;;;;;;;;;;;;;;;;;;;;
2022/06/21 17:39:17;;;;;;;2.97;1.20;;;21.10;76.00;;;;;;4942345;29;20527;-77
2022/06/21 17:41:55;;;;;;;2.00;0.90;;;20.90;76.00;;;;;;4993081;28;20975;-77
2022/06/21 17:44:26;;;;;;;3.30;1.00;;;20.60;77.10;;;;;;4992644;28;20515;-78
2022/06/21 17:46:56;;;;;;;3.67;1.03;;;20.40;78.20;;;;;;4993174;28;20405;-78
2022/06/21 17:49:34;;;;;;;2.10;0.83;;;20.30;78.40;;;;;;4992083;28;20412;-77
2022/06/21 17:52:08;;;;;;;5.90;1.07;;;20.20;78.10;;;;;;4992867;28;20920;-78
2022/06/21 17:54:50;;;;;;;4.13;0.80;;;20.20;77.50;;;;;;4992740;28;20423;-77
2022/06/21 17:57:18;;;;;;;3.53;0.97;;;20.20;76.70;;;;;;4975592;28;20908;-78
2022/06/21 17:59:44;;;;;;;3.20;0.70;;;20.30;77.00;;;;;;4992838;28;20413;-78
2022/06/21 18:02:26;;;;;;;2.20;0.80;;;20.20;77.50;;;;;;4980565;28;20457;-78
2022/06/21 18:05:04;;;;;;;1.73;0.90;;;20.30;77.80;;;;;;4991180;28;20421;-78
2022/06/21 18:07:49;;;;;;;9.37;1.03;;;20.40;78.70;;;;;;4970604;28;20939;-77
2022/06/21 18:10:23;;;;;;;1.30;0.80;;;20.50;78.80;;;;;;4974595;28;20416;-77
2022/06/21 18:13:14;;;;;;;2.83;1.17;;;20.40;77.70;;;;;;4994506;28;20877;-77
2022/06/21 18:15:58;;;;;;;4.67;1.37;;;20.30;77.80;;;;;;4974669;28;20520;-77
2022/06/21 18:18:48;;;;;;;2.70;0.83;;;20.20;79.00;;;;;;4990591;28;20411;-77
2022/06/21 18:21:40;;;;;;;1.17;0.80;;;20.20;78.80;;;;;;4989306;28;20440;-78
2022/06/21 18:24:23;;;;;;;1.77;0.90;;;20.10;80.40;;;;;;4989529;28;20411;-78
2022/06/21 18:27:15;;;;;;;1.00;0.70;;;19.90;83.10;;;;;;4989103;28;20500;-78
2022/06/21 18:30:08;;;;;;;2.47;1.00;;;19.60;85.30;;;;;;4973839;28;20790;-77
2022/06/21 18:32:51;;;;;;;4.53;1.13;;;19.30;88.50;;;;;;4991346;28;20471;-79
2022/06/21 18:35:19;;;;;;;6.07;0.97;;;19.00;88.00;;;;;;4991493;28;20452;-79
2022/06/21 18:38:12;;;;;;;1.83;0.90;;;18.80;90.80;;;;;;4991576;28;20427;-78
2022/06/21 18:40:54;;;;;;;2.60;0.97;;;18.70;91.90;;;;;;4992505;28;20452;-79
2022/06/21 18:43:38;;;;;;;3.10;1.20;;;18.70;93.50;;;;;;4992192;28;20448;-80
2022/06/21 18:46:38;;;;;;;3.70;1.60;;;18.70;93.80;;;;;;4992569;28;20407;-80
2022/06/21 18:49:12;;;;;;;1.73;0.80;;;18.60;95.30;;;;;;4992508;28;20401;-80
2022/06/21 18:51:56;;;;;;;4.50;1.50;;;18.50;96.30;;;;;;4992436;28;20439;-78
2022/06/21 18:54:40;;;;;;;2.27;0.90;;;18.40;94.70;;;;;;4992701;28;20499;-77
2022/06/21 18:57:12;;;;;;;3.10;1.00;;;18.30;93.40;;;;;;4992784;28;20401;-79
2022/06/21 18:59:56;;;;;;;3.60;1.07;;;18.10;93.90;;;;;;4992368;28;20400;-79
2022/06/21 19:02:34;;;;;;;4.10;1.00;;;18.10;90.80;;;;;;4995942;28;20448;-79
2022/06/21 19:08:29;;;;;;;2.67;0.90;;;17.80;92.80;;;;;;4997347;28;20439;-76
2022/06/21 19:11:24;;;;;;;4.60;1.40;;;17.50;95.30;;;;;;4999767;28;20451;-76
2022/06/21 19:14:00;;;;;;;5.30;1.33;;;17.20;96.30;;;;;;4998645;28;20405;-76
2022/06/21 19:16:57;;;;;;;1.97;1.00;;;16.90;96.30;;;;;;4980399;28;20428;-75
2022/06/21 19:19:48;;;;;;;6.43;1.37;;;16.50;96.30;;;;;;4997702;28;20825;-76
2022/06/21 19:22:43;;;;;;;1.70;1.00;;;16.30;96.30;;;;;;4978312;28;20467;-77